sensor_id;sensor_type;location;lat;lon;timestamp;P1;durP1;ratioP1;P2;durP2;ratioP2
60318;SDS011;46163;52.306;5.634;2023-03-01T00:01:23;1.02;;;0.98;;
60318;SDS011;46163;52.306;5.634;2023-03-01T00:03:51;1.55;;;1.10;;
60318;SDS011;46163;52.306;5.634;2023-03-01T00:06:17;0.98;;;0.98;;
60318;SDS011;46163;52.306;5.634;2023-03-01T00:08:43;0.98;;;0.98;;
60318;SDS011;46163;52.306;5.634;2023-03-01T00:11:11;0.90;;;0.90;;
60318;SDS011;46163;52.306;5.634;2023-03-01T00:13:38;1.10;;;1.00;;
60318;SDS011;46163;52.306;5.634;2023-03-01T00:16:05;1.08;;;1.00;;
60318;SDS011;46163;52.306;5.634;2023-03-01T00:20:58;1.00;;;1.00;;
60318;SDS011;46163;52.306;5.634;2023-03-01T00:23:24;1.08;;;1.08;;
60318;SDS011;46163;52.306;5.634;2023-03-01T00:25:50;1.10;;;1.10;;
60318;SDS011;46163;52.306;5.634;2023-03-01T00:28:16;1.00;;;1.00;;
60318;SDS011;46163;52.306;5.634;2023-03-01T00:30:41;1.00;;;1.00;;
60318;SDS011;46163;52.306;5.634;2023-03-01T00:33:07;1.23;;;1.13;;
60318;SDS011;46163;52.306;5.634;2023-03-01T00:35:33;1.10;;;1.10;;
60318;SDS011;46163;52.306;5.634;2023-03-01T00:37:59;1.10;;;1.10;;
60318;SDS011;46163;52.306;5.634;2023-03-01T00:40:25;1.55;;;1.35;;
60318;SDS011;46163;52.306;5.634;2023-03-01T00:42:54;1.10;;;1.10;;
60318;SDS011;46163;52.306;5.634;2023-03-01T00:45:22;1.00;;;1.00;;
60318;SDS011;46163;52.306;5.634;2023-03-01T00:47:49;1.00;;;1.00;;
60318;SDS011;46163;52.306;5.634;2023-03-01T00:50:16;1.05;;;1.05;;
60318;SDS011;46163;52.306;5.634;2023-03-01T00:52:42;1.15;;;1.15;;
60318;SDS011;46163;52.306;5.634;2023-03-01T00:55:08;1.25;;;1.20;;
60318;SDS011;46163;52.306;5.634;2023-03-01T00:57:34;1.15;;;1.13;;
60318;SDS011;46163;52.306;5.634;2023-03-01T00:59:59;1.10;;;1.10;;
60318;SDS011;46163;52.306;5.634;2023-03-01T01:02:25;1.10;;;1.10;;
60318;SDS011;46163;52.306;5.634;2023-03-01T01:04:51;1.35;;;1.25;;
60318;SDS011;46163;52.306;5.634;2023-03-01T01:07:16;1.17;;;1.17;;
60318;SDS011;46163;52.306;5.634;2023-03-01T01:09:45;1.00;;;1.00;;
60318;SDS011;46163;52.306;5.634;2023-03-01T01:12:11;1.20;;;1.20;;
60318;SDS011;46163;52.306;5.634;2023-03-01T01:14:36;1.00;;;1.00;;
60318;SDS011;46163;52.306;5.634;2023-03-01T01:17:02;1.10;;;1.10;;
60318;SDS011;46163;52.306;5.634;2023-03-01T01:19:28;1.05;;;1.05;;
60318;SDS011;46163;52.306;5.634;2023-03-01T01:21:54;1.40;;;1.30;;
60318;SDS011;46163;52.306;5.634;2023-03-01T01:24:19;1.05;;;1.05;;
60318;SDS011;46163;52.306;5.634;2023-03-01T01:26:45;1.25;;;1.25;;
60318;SDS011;46163;52.306;5.634;2023-03-01T01:29:11;1.17;;;1.15;;
60318;SDS011;46163;52.306;5.634;2023-03-01T01:31:37;1.20;;;1.13;;
60318;SDS011;46163;52.306;5.634;2023-03-01T01:34:05;1.23;;;1.23;;
60318;SDS011;46163;52.306;5.634;2023-03-01T01:36:33;1.08;;;1.08;;
60318;SDS011;46163;52.306;5.634;2023-03-01T01:39:00;1.20;;;1.20;;
60318;SDS011;46163;52.306;5.634;2023-03-01T01:41:26;1.10;;;1.10;;
60318;SDS011;46163;52.306;5.634;2023-03-01T01:44:10;1.20;;;1.20;;
60318;SDS011;46163;52.306;5.634;2023-03-01T01:46:55;1.10;;;1.10;;
60318;SDS011;46163;52.306;5.634;2023-03-01T01:51:55;1.08;;;1.08;;
60318;SDS011;46163;52.306;5.634;2023-03-01T01:54:39;1.10;;;1.10;;
60318;SDS011;46163;52.306;5.634;2023-03-01T01:57:11;1.30;;;1.30;;
60318;SDS011;46163;52.306;5.634;2023-03-01T01:59:54;1.20;;;1.20;;
60318;SDS011;46163;52.306;5.634;2023-03-01T02:02:24;1.25;;;1.15;;
60318;SDS011;46163;52.306;5.634;2023-03-01T02:04:52;1.25;;;1.25;;
60318;SDS011;46163;52.306;5.634;2023-03-01T02:07:28;1.35;;;1.33;;
60318;SDS011;46163;52.306;5.634;2023-03-01T02:09:55;1.13;;;1.10;;
60318;SDS011;46163;52.306;5.634;2023-03-01T02:12:21;1.38;;;1.27;;
60318;SDS011;46163;52.306;5.634;2023-03-01T02:14:49;1.35;;;1.27;;
60318;SDS011;46163;52.306;5.634;2023-03-01T02:17:15;1.27;;;1.20;;
60318;SDS011;46163;52.306;5.634;2023-03-01T02:24:48;1.30;;;1.30;;
60318;SDS011;46163;52.306;5.634;2023-03-01T02:27:44;1.35;;;1.30;;
60318;SDS011;46163;52.306;5.634;2023-03-01T02:30:19;1.15;;;1.15;;
60318;SDS011;46163;52.306;5.634;2023-03-01T02:32:46;1.25;;;1.23;;
60318;SDS011;46163;52.306;5.634;2023-03-01T02:35:14;1.40;;;1.30;;
60318;SDS011;46163;52.306;5.634;2023-03-01T02:37:43;1.20;;;1.20;;
60318;SDS011;46163;52.306;5.634;2023-03-01T02:40:11;1.17;;;1.17;;
60318;SDS011;46163;52.306;5.634;2023-03-01T02:42:56;1.20;;;1.20;;
60318;SDS011;46163;52.306;5.634;2023-03-01T02:45:24;1.50;;;1.40;;
60318;SDS011;46163;52.306;5.634;2023-03-01T02:47:53;1.30;;;1.20;;
60318;SDS011;46163;52.306;5.634;2023-03-01T02:51:07;1.40;;;1.30;;
60318;SDS011;46163;52.306;5.634;2023-03-01T02:53:32;1.30;;;1.20;;
60318;SDS011;46163;52.306;5.634;2023-03-01T02:56:00;1.10;;;1.10;;
60318;SDS011;46163;52.306;5.634;2023-03-01T02:58:26;1.38;;;1.27;;
60318;SDS011;46163;52.306;5.634;2023-03-01T03:00:52;1.30;;;1.30;;
60318;SDS011;46163;52.306;5.634;2023-03-01T03:03:19;2.05;;;1.30;;
60318;SDS011;46163;52.306;5.634;2023-03-01T03:05:45;1.33;;;1.33;;
60318;SDS011;46163;52.306;5.634;2023-03-01T03:08:12;1.40;;;1.30;;
60318;SDS011;46163;52.306;5.634;2023-03-01T03:10:39;1.50;;;1.40;;
60318;SDS011;46163;52.306;5.634;2023-03-01T03:13:11;1.20;;;1.20;;
60318;SDS011;46163;52.306;5.634;2023-03-01T03:15:38;1.10;;;1.10;;
60318;SDS011;46163;52.306;5.634;2023-03-01T03:18:06;1.40;;;1.30;;
60318;SDS011;46163;52.306;5.634;2023-03-01T03:20:34;1.30;;;1.30;;
60318;SDS011;46163;52.306;5.634;2023-03-01T03:25:28;1.27;;;1.27;;
60318;SDS011;46163;52.306;5.634;2023-03-01T03:27:55;1.20;;;1.20;;
60318;SDS011;46163;52.306;5.634;2023-03-01T03:30:22;1.25;;;1.17;;
60318;SDS011;46163;52.306;5.634;2023-03-01T03:32:56;1.20;;;1.20;;
60318;SDS011;46163;52.306;5.634;2023-03-01T03:35:23;1.08;;;1.08;;
60318;SDS011;46163;52.306;5.634;2023-03-01T03:37:57;1.20;;;1.10;;
60318;SDS011;46163;52.306;5.634;2023-03-01T03:40:30;1.20;;;1.20;;
60318;SDS011;46163;52.306;5.634;2023-03-01T03:43:10;0.88;;;0.88;;
60318;SDS011;46163;52.306;5.634;2023-03-01T03:45:40;1.23;;;1.17;;
60318;SDS011;46163;52.306;5.634;2023-03-01T03:48:07;0.98;;;0.98;;
60318;SDS011;46163;52.306;5.634;2023-03-01T03:50:34;1.10;;;1.10;;
60318;SDS011;46163;52.306;5.634;2023-03-01T03:53:04;1.02;;;1.02;;
60318;SDS011;46163;52.306;5.634;2023-03-01T03:55:35;1.00;;;1.00;;
60318;SDS011;46163;52.306;5.634;2023-03-01T03:58:04;1.20;;;1.20;;
60318;SDS011;46163;52.306;5.634;2023-03-01T04:00:36;0.90;;;0.90;;
60318;SDS011;46163;52.306;5.634;2023-03-01T04:03:03;1.25;;;1.20;;
60318;SDS011;46163;52.306;5.634;2023-03-01T04:05:29;1.15;;;1.15;;
60318;SDS011;46163;52.306;5.634;2023-03-01T04:07:55;1.10;;;1.10;;
60318;SDS011;46163;52.306;5.634;2023-03-01T04:10:28;1.10;;;1.10;;
60318;SDS011;46163;52.306;5.634;2023-03-01T04:12:55;1.20;;;1.20;;
60318;SDS011;46163;52.306;5.634;2023-03-01T04:15:22;1.08;;;1.08;;
60318;SDS011;46163;52.306;5.634;2023-03-01T04:17:49;1.00;;;1.00;;
60318;SDS011;46163;52.306;5.634;2023-03-01T04:20:18;0.98;;;0.98;;
60318;SDS011;46163;52.306;5.634;2023-03-01T04:22:58;0.93;;;0.93;;
60318;SDS011;46163;52.306;5.634;2023-03-01T04:25:42;2.67;;;1.05;;
60318;SDS011;46163;52.306;5.634;2023-03-01T04:28:23;1.10;;;1.10;;
60318;SDS011;46163;52.306;5.634;2023-03-01T04:30:52;1.10;;;1.10;;
60318;SDS011;46163;52.306;5.634;2023-03-01T04:33:19;1.10;;;1.10;;
60318;SDS011;46163;52.306;5.634;2023-03-01T04:35:46;1.10;;;1.10;;
60318;SDS011;46163;52.306;5.634;2023-03-01T04:38:14;0.98;;;0.98;;
60318;SDS011;46163;52.306;5.634;2023-03-01T04:40:41;1.20;;;1.20;;
60318;SDS011;46163;52.306;5.634;2023-03-01T04:43:10;0.90;;;0.90;;
60318;SDS011;46163;52.306;5.634;2023-03-01T04:45:38;1.25;;;1.20;;
60318;SDS011;46163;52.306;5.634;2023-03-01T04:48:03;1.10;;;1.10;;
60318;SDS011;46163;52.306;5.634;2023-03-01T04:50:29;1.00;;;1.00;;
60318;SDS011;46163;52.306;5.634;2023-03-01T04:52:57;1.20;;;1.20;;
60318;SDS011;46163;52.306;5.634;2023-03-01T04:55:26;1.10;;;1.10;;
60318;SDS011;46163;52.306;5.634;2023-03-01T04:57:52;1.15;;;1.15;;
60318;SDS011;46163;52.306;5.634;2023-03-01T05:00:18;1.20;;;1.20;;
60318;SDS011;46163;52.306;5.634;2023-03-01T05:05:21;1.27;;;1.20;;
60318;SDS011;46163;52.306;5.634;2023-03-01T05:07:55;1.10;;;1.10;;
60318;SDS011;46163;52.306;5.634;2023-03-01T05:10:22;1.05;;;1.05;;
60318;SDS011;46163;52.306;5.634;2023-03-01T05:12:48;1.20;;;1.10;;
60318;SDS011;46163;52.306;5.634;2023-03-01T05:15:14;1.10;;;1.00;;
60318;SDS011;46163;52.306;5.634;2023-03-01T05:17:40;1.25;;;1.25;;
60318;SDS011;46163;52.306;5.634;2023-03-01T05:20:06;1.10;;;1.10;;
60318;SDS011;46163;52.306;5.634;2023-03-01T05:22:33;1.20;;;1.17;;
60318;SDS011;46163;52.306;5.634;2023-03-01T05:25:00;1.13;;;1.13;;
60318;SDS011;46163;52.306;5.634;2023-03-01T05:27:27;1.00;;;1.00;;
60318;SDS011;46163;52.306;5.634;2023-03-01T05:29:54;1.87;;;1.30;;
60318;SDS011;46163;52.306;5.634;2023-03-01T05:32:20;1.00;;;1.00;;
60318;SDS011;46163;52.306;5.634;2023-03-01T05:34:46;1.35;;;1.30;;
60318;SDS011;46163;52.306;5.634;2023-03-01T05:37:12;1.17;;;1.17;;
60318;SDS011;46163;52.306;5.634;2023-03-01T05:39:39;0.90;;;0.90;;
60318;SDS011;46163;52.306;5.634;2023-03-01T05:42:09;1.10;;;1.10;;
60318;SDS011;46163;52.306;5.634;2023-03-01T05:44:35;1.00;;;1.00;;
60318;SDS011;46163;52.306;5.634;2023-03-01T05:47:01;1.10;;;1.10;;
60318;SDS011;46163;52.306;5.634;2023-03-01T05:49:26;1.20;;;1.20;;
60318;SDS011;46163;52.306;5.634;2023-03-01T05:51:52;1.20;;;1.10;;
60318;SDS011;46163;52.306;5.634;2023-03-01T05:54:19;1.13;;;1.13;;
60318;SDS011;46163;52.306;5.634;2023-03-01T05:56:46;1.48;;;1.38;;
60318;SDS011;46163;52.306;5.634;2023-03-01T05:59:12;1.30;;;1.10;;
60318;SDS011;46163;52.306;5.634;2023-03-01T06:01:38;1.40;;;1.30;;
60318;SDS011;46163;52.306;5.634;2023-03-01T06:04:04;1.15;;;1.15;;
60318;SDS011;46163;52.306;5.634;2023-03-01T06:06:33;0.90;;;0.90;;
60318;SDS011;46163;52.306;5.634;2023-03-01T06:09:03;1.23;;;1.23;;
60318;SDS011;46163;52.306;5.634;2023-03-01T06:11:29;1.30;;;1.30;;
60318;SDS011;46163;52.306;5.634;2023-03-01T06:13:55;1.20;;;1.20;;
60318;SDS011;46163;52.306;5.634;2023-03-01T06:16:20;1.10;;;1.10;;
60318;SDS011;46163;52.306;5.634;2023-03-01T06:18:46;1.00;;;1.00;;
60318;SDS011;46163;52.306;5.634;2023-03-01T06:21:11;1.10;;;1.10;;
60318;SDS011;46163;52.306;5.634;2023-03-01T06:23:37;1.23;;;1.20;;
60318;SDS011;46163;52.306;5.634;2023-03-01T06:26:06;1.17;;;1.17;;
60318;SDS011;46163;52.306;5.634;2023-03-01T06:28:32;1.08;;;1.08;;
60318;SDS011;46163;52.306;5.634;2023-03-01T06:30:58;1.10;;;1.10;;
60318;SDS011;46163;52.306;5.634;2023-03-01T06:33:24;0.90;;;0.90;;
60318;SDS011;46163;52.306;5.634;2023-03-01T06:35:50;1.15;;;1.10;;
60318;SDS011;46163;52.306;5.634;2023-03-01T06:38:16;1.33;;;1.23;;
60318;SDS011;46163;52.306;5.634;2023-03-01T06:40:44;1.20;;;1.10;;
60318;SDS011;46163;52.306;5.634;2023-03-01T06:43:09;1.00;;;1.00;;
60318;SDS011;46163;52.306;5.634;2023-03-01T06:45:37;1.23;;;1.08;;
60318;SDS011;46163;52.306;5.634;2023-03-01T06:48:04;1.02;;;1.02;;
60318;SDS011;46163;52.306;5.634;2023-03-01T06:50:31;0.98;;;0.98;;
60318;SDS011;46163;52.306;5.634;2023-03-01T06:52:57;0.80;;;0.80;;
60318;SDS011;46163;52.306;5.634;2023-03-01T06:55:23;1.10;;;1.10;;
60318;SDS011;46163;52.306;5.634;2023-03-01T06:57:53;1.02;;;1.02;;
60318;SDS011;46163;52.306;5.634;2023-03-01T07:00:20;1.20;;;0.88;;
60318;SDS011;46163;52.306;5.634;2023-03-01T07:02:45;1.00;;;1.00;;
60318;SDS011;46163;52.306;5.634;2023-03-01T07:05:11;0.90;;;0.90;;
60318;SDS011;46163;52.306;5.634;2023-03-01T07:07:36;1.02;;;1.00;;
60318;SDS011;46163;52.306;5.634;2023-03-01T07:10:02;1.02;;;1.02;;
60318;SDS011;46163;52.306;5.634;2023-03-01T07:12:28;1.00;;;1.00;;
60318;SDS011;46163;52.306;5.634;2023-03-01T07:14:53;1.17;;;1.08;;
60318;SDS011;46163;52.306;5.634;2023-03-01T07:17:19;0.90;;;0.90;;
60318;SDS011;46163;52.306;5.634;2023-03-01T07:19:44;1.20;;;1.20;;
60318;SDS011;46163;52.306;5.634;2023-03-01T07:22:10;1.10;;;1.05;;
60318;SDS011;46163;52.306;5.634;2023-03-01T07:24:35;1.10;;;1.10;;
60318;SDS011;46163;52.306;5.634;2023-03-01T07:27:01;1.30;;;1.20;;
60318;SDS011;46163;52.306;5.634;2023-03-01T07:29:26;1.10;;;1.10;;
60318;SDS011;46163;52.306;5.634;2023-03-01T07:31:53;1.40;;;1.30;;
60318;SDS011;46163;52.306;5.634;2023-03-01T07:34:19;1.50;;;1.40;;
60318;SDS011;46163;52.306;5.634;2023-03-01T07:36:45;1.20;;;1.20;;
60318;SDS011;46163;52.306;5.634;2023-03-01T07:39:10;1.15;;;1.13;;
60318;SDS011;46163;52.306;5.634;2023-03-01T07:41:36;2.03;;;1.30;;
60318;SDS011;46163;52.306;5.634;2023-03-01T07:44:02;2.25;;;1.35;;
60318;SDS011;46163;52.306;5.634;2023-03-01T07:46:27;1.30;;;1.20;;
60318;SDS011;46163;52.306;5.634;2023-03-01T07:48:53;1.13;;;1.13;;
60318;SDS011;46163;52.306;5.634;2023-03-01T07:51:18;1.27;;;1.20;;
60318;SDS011;46163;52.306;5.634;2023-03-01T07:53:45;1.52;;;1.42;;
60318;SDS011;46163;52.306;5.634;2023-03-01T07:56:13;1.25;;;1.25;;
60318;SDS011;46163;52.306;5.634;2023-03-01T07:58:42;2.28;;;1.23;;
60318;SDS011;46163;52.306;5.634;2023-03-01T08:01:09;1.40;;;1.35;;
60318;SDS011;46163;52.306;5.634;2023-03-01T08:03:39;1.35;;;1.25;;
60318;SDS011;46163;52.306;5.634;2023-03-01T08:06:05;1.58;;;1.45;;
60318;SDS011;46163;52.306;5.634;2023-03-01T08:08:33;0.93;;;0.93;;
60318;SDS011;46163;52.306;5.634;2023-03-01T08:10:59;1.73;;;1.30;;
60318;SDS011;46163;52.306;5.634;2023-03-01T08:13:27;1.20;;;1.20;;
60318;SDS011;46163;52.306;5.634;2023-03-01T08:15:53;4.28;;;1.20;;
60318;SDS011;46163;52.306;5.634;2023-03-01T08:18:19;1.60;;;1.50;;
60318;SDS011;46163;52.306;5.634;2023-03-01T08:20:45;2.55;;;1.30;;
60318;SDS011;46163;52.306;5.634;2023-03-01T08:23:12;1.20;;;1.20;;
60318;SDS011;46163;52.306;5.634;2023-03-01T08:25:38;1.65;;;1.10;;
60318;SDS011;46163;52.306;5.634;2023-03-01T08:28:08;1.20;;;1.10;;
60318;SDS011;46163;52.306;5.634;2023-03-01T08:30:34;1.35;;;1.30;;
60318;SDS011;46163;52.306;5.634;2023-03-01T08:32:59;1.85;;;1.23;;
60318;SDS011;46163;52.306;5.634;2023-03-01T08:35:25;1.85;;;1.15;;
60318;SDS011;46163;52.306;5.634;2023-03-01T08:37:51;1.20;;;1.20;;
60318;SDS011;46163;52.306;5.634;2023-03-01T08:40:17;2.72;;;1.10;;
60318;SDS011;46163;52.306;5.634;2023-03-01T08:42:42;1.20;;;1.08;;
60318;SDS011;46163;52.306;5.634;2023-03-01T08:45:08;1.10;;;1.10;;
60318;SDS011;46163;52.306;5.634;2023-03-01T08:47:39;1.10;;;1.10;;
60318;SDS011;46163;52.306;5.634;2023-03-01T08:50:04;1.15;;;1.05;;
60318;SDS011;46163;52.306;5.634;2023-03-01T08:52:31;1.20;;;1.20;;
60318;SDS011;46163;52.306;5.634;2023-03-01T08:54:57;1.00;;;1.00;;
60318;SDS011;46163;52.306;5.634;2023-03-01T08:57:23;2.38;;;1.20;;
60318;SDS011;46163;52.306;5.634;2023-03-01T08:59:48;1.88;;;1.20;;
60318;SDS011;46163;52.306;5.634;2023-03-01T09:02:15;1.17;;;1.10;;
60318;SDS011;46163;52.306;5.634;2023-03-01T09:04:43;1.30;;;1.20;;
60318;SDS011;46163;52.306;5.634;2023-03-01T09:07:09;1.33;;;1.23;;
60318;SDS011;46163;52.306;5.634;2023-03-01T09:09:35;1.00;;;1.00;;
60318;SDS011;46163;52.306;5.634;2023-03-01T09:12:01;1.60;;;1.20;;
60318;SDS011;46163;52.306;5.634;2023-03-01T09:14:28;1.35;;;1.27;;
60318;SDS011;46163;52.306;5.634;2023-03-01T09:16:53;1.38;;;1.27;;
60318;SDS011;46163;52.306;5.634;2023-03-01T09:19:19;1.73;;;1.20;;
60318;SDS011;46163;52.306;5.634;2023-03-01T09:21:44;1.65;;;1.27;;
60318;SDS011;46163;52.306;5.634;2023-03-01T09:24:17;1.67;;;1.10;;
60318;SDS011;46163;52.306;5.634;2023-03-01T09:26:45;1.50;;;1.30;;
60318;SDS011;46163;52.306;5.634;2023-03-01T09:29:11;0.90;;;0.90;;
60318;SDS011;46163;52.306;5.634;2023-03-01T09:31:37;0.90;;;0.90;;
60318;SDS011;46163;52.306;5.634;2023-03-01T09:34:03;0.90;;;0.90;;
60318;SDS011;46163;52.306;5.634;2023-03-01T09:36:29;1.15;;;1.13;;
60318;SDS011;46163;52.306;5.634;2023-03-01T09:38:56;2.05;;;1.17;;
60318;SDS011;46163;52.306;5.634;2023-03-01T09:41:32;1.02;;;0.90;;
60318;SDS011;46163;52.306;5.634;2023-03-01T09:47:23;3.15;;;0.82;;
60318;SDS011;46163;52.306;5.634;2023-03-01T09:49:56;1.10;;;1.10;;
60318;SDS011;46163;52.306;5.634;2023-03-01T09:54:55;0.88;;;0.88;;
60318;SDS011;46163;52.306;5.634;2023-03-01T09:57:37;0.80;;;0.80;;
60318;SDS011;46163;52.306;5.634;2023-03-01T10:02:55;0.88;;;0.88;;
60318;SDS011;46163;52.306;5.634;2023-03-01T10:10:45;2.15;;;0.90;;
60318;SDS011;46163;52.306;5.634;2023-03-01T10:13:23;0.80;;;0.80;;
60318;SDS011;46163;52.306;5.634;2023-03-01T10:15:57;0.85;;;0.85;;
60318;SDS011;46163;52.306;5.634;2023-03-01T10:18:29;0.80;;;0.80;;
60318;SDS011;46163;52.306;5.634;2023-03-01T10:23:29;0.70;;;0.70;;
60318;SDS011;46163;52.306;5.634;2023-03-01T10:26:02;0.90;;;0.90;;
60318;SDS011;46163;52.306;5.634;2023-03-01T10:28:43;0.90;;;0.90;;
60318;SDS011;46163;52.306;5.634;2023-03-01T10:34:17;0.70;;;0.70;;
60318;SDS011;46163;52.306;5.634;2023-03-01T10:36:48;0.70;;;0.70;;
60318;SDS011;46163;52.306;5.634;2023-03-01T10:39:23;0.60;;;0.60;;
60318;SDS011;46163;52.306;5.634;2023-03-01T10:44:35;0.70;;;0.70;;
60318;SDS011;46163;52.306;5.634;2023-03-01T10:47:01;0.75;;;0.75;;
60318;SDS011;46163;52.306;5.634;2023-03-01T10:49:27;0.73;;;0.73;;
60318;SDS011;46163;52.306;5.634;2023-03-01T10:51:52;0.50;;;0.50;;
60318;SDS011;46163;52.306;5.634;2023-03-01T10:54:22;0.70;;;0.70;;
60318;SDS011;46163;52.306;5.634;2023-03-01T10:56:54;0.68;;;0.68;;
60318;SDS011;46163;52.306;5.634;2023-03-01T11:04:34;0.80;;;0.80;;
60318;SDS011;46163;52.306;5.634;2023-03-01T11:07:00;0.77;;;0.77;;
60318;SDS011;46163;52.306;5.634;2023-03-01T11:09:29;0.70;;;0.70;;
60318;SDS011;46163;52.306;5.634;2023-03-01T11:12:02;0.60;;;0.60;;
60318;SDS011;46163;52.306;5.634;2023-03-01T11:17:01;0.95;;;0.93;;
60318;SDS011;46163;52.306;5.634;2023-03-01T11:19:27;0.70;;;0.70;;
60318;SDS011;46163;52.306;5.634;2023-03-01T11:22:04;0.95;;;0.55;;
60318;SDS011;46163;52.306;5.634;2023-03-01T11:24:40;1.27;;;1.00;;
60318;SDS011;46163;52.306;5.634;2023-03-01T11:27:15;1.05;;;0.70;;
60318;SDS011;46163;52.306;5.634;2023-03-01T11:30:05;0.85;;;0.82;;
60318;SDS011;46163;52.306;5.634;2023-03-01T11:32:42;0.75;;;0.75;;
60318;SDS011;46163;52.306;5.634;2023-03-01T11:35:14;0.73;;;0.73;;
60318;SDS011;46163;52.306;5.634;2023-03-01T11:40:44;0.90;;;0.90;;
60318;SDS011;46163;52.306;5.634;2023-03-01T12:00:16;1.10;;;1.10;;
60318;SDS011;46163;52.306;5.634;2023-03-01T12:19:24;0.80;;;0.80;;
60318;SDS011;46163;52.306;5.634;2023-03-01T12:24:26;0.82;;;0.82;;
60318;SDS011;46163;52.306;5.634;2023-03-01T12:27:35;0.82;;;0.80;;
60318;SDS011;46163;52.306;5.634;2023-03-01T12:35:45;0.60;;;0.60;;
60318;SDS011;46163;52.306;5.634;2023-03-01T12:47:18;1.50;;;0.70;;
60318;SDS011;46163;52.306;5.634;2023-03-01T12:50:01;0.70;;;0.70;;
60318;SDS011;46163;52.306;5.634;2023-03-01T12:52:44;0.70;;;0.70;;
60318;SDS011;46163;52.306;5.634;2023-03-01T12:55:31;0.52;;;0.52;;
60318;SDS011;46163;52.306;5.634;2023-03-01T13:12:03;0.90;;;0.90;;
60318;SDS011;46163;52.306;5.634;2023-03-01T13:14:51;0.77;;;0.77;;
60318;SDS011;46163;52.306;5.634;2023-03-01T13:17:29;0.93;;;0.65;;
60318;SDS011;46163;52.306;5.634;2023-03-01T13:19:57;0.73;;;0.73;;
60318;SDS011;46163;52.306;5.634;2023-03-01T13:22:29;0.90;;;0.90;;
60318;SDS011;46163;52.306;5.634;2023-03-01T13:25:11;0.90;;;0.90;;
60318;SDS011;46163;52.306;5.634;2023-03-01T13:27:39;0.60;;;0.60;;
60318;SDS011;46163;52.306;5.634;2023-03-01T13:30:12;0.70;;;0.70;;
60318;SDS011;46163;52.306;5.634;2023-03-01T13:35:52;0.77;;;0.77;;
60318;SDS011;46163;52.306;5.634;2023-03-01T13:41:06;0.75;;;0.75;;
60318;SDS011;46163;52.306;5.634;2023-03-01T13:43:34;0.80;;;0.80;;
60318;SDS011;46163;52.306;5.634;2023-03-01T13:46:07;0.65;;;0.65;;
60318;SDS011;46163;52.306;5.634;2023-03-01T13:48:45;0.80;;;0.80;;
60318;SDS011;46163;52.306;5.634;2023-03-01T13:51:15;0.50;;;0.50;;
60318;SDS011;46163;52.306;5.634;2023-03-01T13:53:45;0.50;;;0.50;;
60318;SDS011;46163;52.306;5.634;2023-03-01T13:56:19;0.60;;;0.60;;
60318;SDS011;46163;52.306;5.634;2023-03-01T14:01:31;0.77;;;0.77;;
60318;SDS011;46163;52.306;5.634;2023-03-01T14:03:59;0.60;;;0.60;;
60318;SDS011;46163;52.306;5.634;2023-03-01T14:06:27;0.80;;;0.80;;
60318;SDS011;46163;52.306;5.634;2023-03-01T14:14:56;0.70;;;0.70;;
60318;SDS011;46163;52.306;5.634;2023-03-01T14:17:35;0.80;;;0.80;;
60318;SDS011;46163;52.306;5.634;2023-03-01T14:20:18;0.80;;;0.80;;
60318;SDS011;46163;52.306;5.634;2023-03-01T14:22:49;0.70;;;0.70;;
60318;SDS011;46163;52.306;5.634;2023-03-01T14:25:23;0.60;;;0.60;;
60318;SDS011;46163;52.306;5.634;2023-03-01T14:27:52;0.90;;;0.90;;
60318;SDS011;46163;52.306;5.634;2023-03-01T14:30:22;0.70;;;0.70;;
60318;SDS011;46163;52.306;5.634;2023-03-01T14:32:55;0.60;;;0.60;;
60318;SDS011;46163;52.306;5.634;2023-03-01T14:35:25;0.60;;;0.60;;
60318;SDS011;46163;52.306;5.634;2023-03-01T14:37:55;0.70;;;0.70;;
60318;SDS011;46163;52.306;5.634;2023-03-01T14:40:25;0.70;;;0.70;;
60318;SDS011;46163;52.306;5.634;2023-03-01T14:43:00;1.10;;;0.55;;
60318;SDS011;46163;52.306;5.634;2023-03-01T14:45:33;0.40;;;0.40;;
60318;SDS011;46163;52.306;5.634;2023-03-01T14:47:59;0.75;;;0.75;;
60318;SDS011;46163;52.306;5.634;2023-03-01T14:50:28;0.60;;;0.60;;
60318;SDS011;46163;52.306;5.634;2023-03-01T14:52:56;0.77;;;0.77;;
60318;SDS011;46163;52.306;5.634;2023-03-01T14:55:46;0.88;;;0.88;;
60318;SDS011;46163;52.306;5.634;2023-03-01T14:58:13;0.60;;;0.60;;
60318;SDS011;46163;52.306;5.634;2023-03-01T15:00:45;0.85;;;0.82;;
60318;SDS011;46163;52.306;5.634;2023-03-01T15:03:18;0.98;;;0.98;;
60318;SDS011;46163;52.306;5.634;2023-03-01T15:05:50;0.80;;;0.80;;
60318;SDS011;46163;52.306;5.634;2023-03-01T15:08:18;0.65;;;0.65;;
60318;SDS011;46163;52.306;5.634;2023-03-01T15:11:46;0.77;;;0.77;;
60318;SDS011;46163;52.306;5.634;2023-03-01T15:13:41;0.70;;;0.70;;
60318;SDS011;46163;52.306;5.634;2023-03-01T15:16:11;0.60;;;0.60;;
60318;SDS011;46163;52.306;5.634;2023-03-01T15:18:37;0.60;;;0.60;;
60318;SDS011;46163;52.306;5.634;2023-03-01T15:21:16;0.60;;;0.60;;
60318;SDS011;46163;52.306;5.634;2023-03-01T15:23:54;0.65;;;0.65;;
60318;SDS011;46163;52.306;5.634;2023-03-01T15:26:27;0.60;;;0.60;;
60318;SDS011;46163;52.306;5.634;2023-03-01T15:29:00;0.80;;;0.80;;
60318;SDS011;46163;52.306;5.634;2023-03-01T15:31:36;0.70;;;0.70;;
60318;SDS011;46163;52.306;5.634;2023-03-01T15:34:11;0.55;;;0.55;;
60318;SDS011;46163;52.306;5.634;2023-03-01T15:36:51;0.68;;;0.68;;
60318;SDS011;46163;52.306;5.634;2023-03-01T15:42:08;0.70;;;0.70;;
60318;SDS011;46163;52.306;5.634;2023-03-01T15:44:36;0.75;;;0.75;;
60318;SDS011;46163;52.306;5.634;2023-03-01T15:47:22;0.50;;;0.50;;
60318;SDS011;46163;52.306;5.634;2023-03-01T15:49:52;0.73;;;0.73;;
60318;SDS011;46163;52.306;5.634;2023-03-01T15:52:23;0.68;;;0.68;;
60318;SDS011;46163;52.306;5.634;2023-03-01T15:55:05;0.95;;;0.95;;
60318;SDS011;46163;52.306;5.634;2023-03-01T15:57:40;0.50;;;0.50;;
60318;SDS011;46163;52.306;5.634;2023-03-01T16:00:05;0.70;;;0.70;;
60318;SDS011;46163;52.306;5.634;2023-03-01T16:02:36;1.02;;;0.88;;
60318;SDS011;46163;52.306;5.634;2023-03-01T16:05:03;0.60;;;0.60;;
60318;SDS011;46163;52.306;5.634;2023-03-01T16:07:28;0.80;;;0.80;;
60318;SDS011;46163;52.306;5.634;2023-03-01T16:09:56;1.57;;;0.80;;
60318;SDS011;46163;52.306;5.634;2023-03-01T16:12:22;0.90;;;0.90;;
60318;SDS011;46163;52.306;5.634;2023-03-01T16:14:49;1.27;;;0.80;;
60318;SDS011;46163;52.306;5.634;2023-03-01T16:17:15;0.68;;;0.68;;
60318;SDS011;46163;52.306;5.634;2023-03-01T16:19:41;0.80;;;0.80;;
60318;SDS011;46163;52.306;5.634;2023-03-01T16:22:08;0.82;;;0.82;;
60318;SDS011;46163;52.306;5.634;2023-03-01T16:24:35;0.95;;;0.70;;
60318;SDS011;46163;52.306;5.634;2023-03-01T16:27:01;0.70;;;0.70;;
60318;SDS011;46163;52.306;5.634;2023-03-01T16:29:27;0.75;;;0.75;;
60318;SDS011;46163;52.306;5.634;2023-03-01T16:31:54;0.77;;;0.70;;
60318;SDS011;46163;52.306;5.634;2023-03-01T16:34:20;1.65;;;0.80;;
60318;SDS011;46163;52.306;5.634;2023-03-01T16:36:46;0.90;;;0.90;;
60318;SDS011;46163;52.306;5.634;2023-03-01T16:39:12;0.80;;;0.80;;
60318;SDS011;46163;52.306;5.634;2023-03-01T16:41:38;0.80;;;0.80;;
60318;SDS011;46163;52.306;5.634;2023-03-01T16:44:03;1.05;;;0.95;;
60318;SDS011;46163;52.306;5.634;2023-03-01T16:46:29;1.00;;;1.00;;
60318;SDS011;46163;52.306;5.634;2023-03-01T16:48:55;0.65;;;0.65;;
60318;SDS011;46163;52.306;5.634;2023-03-01T16:51:21;0.70;;;0.70;;
60318;SDS011;46163;52.306;5.634;2023-03-01T16:53:48;2.10;;;0.98;;
60318;SDS011;46163;52.306;5.634;2023-03-01T16:56:14;4.65;;;0.88;;
60318;SDS011;46163;52.306;5.634;2023-03-01T16:58:41;6.40;;;1.17;;
60318;SDS011;46163;52.306;5.634;2023-03-01T17:01:16;1.17;;;0.80;;
60318;SDS011;46163;52.306;5.634;2023-03-01T17:03:44;2.92;;;0.98;;
60318;SDS011;46163;52.306;5.634;2023-03-01T17:06:12;0.80;;;0.80;;
60318;SDS011;46163;52.306;5.634;2023-03-01T17:08:40;0.98;;;0.80;;
60318;SDS011;46163;52.306;5.634;2023-03-01T17:11:16;1.10;;;0.95;;